Airfield :
LOGIN :

Register | Disclaimer

   EN    FR    IT 

 










Legend :    VFR   Marginal VFR   IFR   Intensive IFR   Very Intensive IFR
Visi :
Ceiling :
>= 8 km
>= 3000ft
5 to 8 km
1000 to 3000 ft
1500m to 5 km
500 to 1000 ft
800 to 1500m
200 to 500 ft
< 800m
< 200 ft
Symbols :   Thunderstorms  Fog  Heavy snow  Heavy precipitations  Wind > 20 kt
SIGMETs :     Misc.  Thunderstorms  Icing  Turbulence  Mountain Waves  Volcanic Ashes






- Airport Elevation : 2077 ft
- IATA code : FMM


EDJA - Memmingen

CURRENT METAR :
  • 162120Z AUTO 19007KT 9999 // SCT140/// 15/12 Q1014

EXPIRED METARs :
  • 162050Z AUTO 17006KT 9999 // SCT095/// BKN140/// 15/12 Q1014
  • 161950Z 21005KT CAVOK 18/11 Q1013
  • 161920Z 23006KT CAVOK 18/11 Q1013
  • 161850Z 23006KT CAVOK 19/10 Q1013
  • 161820Z 24007KT CAVOK 19/10 Q1012
  • 161750Z 24006KT CAVOK 20/10 Q1012
  • 161720Z 27008KT CAVOK 21/09 Q1012
  • 161650Z 26010KT 230V300 CAVOK 21/09 Q1012
  • 161620Z 26010KT CAVOK 21/09 Q1012

TAF TAF EDJA
Valid from the 16 at 18:00 until the 17 at 03:00 UTC


161700Z 1618/1703 22005KT CAVOK
BECMG 1618/1620 VRB03KT



MET'MAP, your aeronautical weather chart ! - Copyright ORBIFLY December 2007 - Disclaimer

ORBIFLY MET'MAP TEAM :

Programming & Development : Alexandra Zaïnal
Original concept : Baudouin d'Aumeries
Technical & hardware support : Manuel Goepfert
Assistance : Marc-Olivier Méhu




SOURCES & CREDITS :

   NOAA